Huvudsida
METAR-TAF:

METAR-TAF

Flygplatser :

Sármelléks internationella flygplats

Hévíz, Ungern

latitud: 46-41-11N, longitud: 017-09-33E, höjd: 124 m

Aktuellt väderrapport

Denna rapport gjordes för 53 minuter sedan, klockan 22:45 UTC
Vind 6 kt från ost
Temperatur 9°C
Fuktighet 100%
Tryck 1009 hPa
Sikt: 5000 m
fuktdis

METAR: LHSM 152245Z AUTO 09006KT 5000 BR NSC 09/09 Q1009

Tid: 00:38 (23:38 UTC)

Väderprognos

Denna rapport gjordes för 12 timmar och 23 minuter sedan, klockan 11:15 UTC
Prognos gäller från 15 kl. 12 UTC till 15 kl. 21 UTC
Vind 7 kt från sydost
Sikt: 8000 m
Brutna moln på en höjd av 1000 ft
Blir
från 15 kl. 12 UTC till 15 kl. 15 UTC
Brutna moln på en höjd av 1500 ft

TAF: LHSM 151115Z 1512/1521 14007KT 8000 BKN010 BECMG 1512/1515 BKN015

Aktuella väderrapporter och prognoser från 4000 flygplatser (METAR- och TAF-rapporter).

De tillgängliga stationerna syns som gula och röda prickar på kartan.

För musen över prickarna för att se namnen på stationerna.

Klicka sedan för att få väderrapporter och prognoser.

För att ändra kartan: Klicka på de gröna knapparna med ett svart kors på för att zooma in; den gröna knappen med ett streck på för att zooma ut; eller på de gröna pilarna för angränsande kartor.


METAR-TAF: